sensor_id;sensor_type;location;lat;lon;timestamp;P1;durP1;ratioP1;P2;durP2;ratioP2
42332;SDS011;27984;51.476;5.702;2022-12-16T00:01:18;51.03;;;27.25;;
42332;SDS011;27984;51.476;5.702;2022-12-16T00:03:50;48.00;;;27.75;;
42332;SDS011;27984;51.476;5.702;2022-12-16T00:06:16;50.13;;;26.83;;
42332;SDS011;27984;51.476;5.702;2022-12-16T00:08:42;46.58;;;26.38;;
42332;SDS011;27984;51.476;5.702;2022-12-16T00:11:09;47.92;;;26.98;;
42332;SDS011;27984;51.476;5.702;2022-12-16T00:13:35;50.67;;;27.23;;
42332;SDS011;27984;51.476;5.702;2022-12-16T00:16:05;54.75;;;28.75;;
42332;SDS011;27984;51.476;5.702;2022-12-16T00:18:31;48.83;;;26.30;;
42332;SDS011;27984;51.476;5.702;2022-12-16T00:20:57;48.42;;;26.58;;
42332;SDS011;27984;51.476;5.702;2022-12-16T00:23:23;50.72;;;26.63;;
42332;SDS011;27984;51.476;5.702;2022-12-16T00:25:49;49.92;;;26.77;;
42332;SDS011;27984;51.476;5.702;2022-12-16T00:28:19;46.25;;;26.45;;
42332;SDS011;27984;51.476;5.702;2022-12-16T00:30:48;45.88;;;25.60;;
42332;SDS011;27984;51.476;5.702;2022-12-16T00:33:15;46.90;;;26.15;;
42332;SDS011;27984;51.476;5.702;2022-12-16T00:35:41;47.67;;;26.50;;
42332;SDS011;27984;51.476;5.702;2022-12-16T00:38:07;51.17;;;26.38;;
42332;SDS011;27984;51.476;5.702;2022-12-16T00:40:33;45.08;;;26.00;;
42332;SDS011;27984;51.476;5.702;2022-12-16T00:42:59;46.50;;;25.95;;
42332;SDS011;27984;51.476;5.702;2022-12-16T00:45:25;40.85;;;25.23;;
42332;SDS011;27984;51.476;5.702;2022-12-16T00:47:51;46.63;;;25.65;;
42332;SDS011;27984;51.476;5.702;2022-12-16T00:50:17;46.38;;;25.83;;
42332;SDS011;27984;51.476;5.702;2022-12-16T00:52:44;48.40;;;26.48;;
42332;SDS011;27984;51.476;5.702;2022-12-16T00:55:10;44.58;;;25.98;;
42332;SDS011;27984;51.476;5.702;2022-12-16T00:57:36;48.70;;;26.08;;
42332;SDS011;27984;51.476;5.702;2022-12-16T01:00:03;46.10;;;25.40;;
42332;SDS011;27984;51.476;5.702;2022-12-16T01:02:29;47.55;;;25.70;;
42332;SDS011;27984;51.476;5.702;2022-12-16T01:04:58;43.53;;;25.27;;
42332;SDS011;27984;51.476;5.702;2022-12-16T01:07:23;41.45;;;24.85;;
42332;SDS011;27984;51.476;5.702;2022-12-16T01:09:50;44.75;;;24.10;;
42332;SDS011;27984;51.476;5.702;2022-12-16T01:12:16;47.75;;;24.95;;
42332;SDS011;27984;51.476;5.702;2022-12-16T01:14:42;49.28;;;26.10;;
42332;SDS011;27984;51.476;5.702;2022-12-16T01:17:08;45.42;;;23.83;;
42332;SDS011;27984;51.476;5.702;2022-12-16T01:19:34;43.25;;;25.77;;
42332;SDS011;27984;51.476;5.702;2022-12-16T01:22:00;40.75;;;24.65;;
42332;SDS011;27984;51.476;5.702;2022-12-16T01:24:26;42.40;;;25.13;;
42332;SDS011;27984;51.476;5.702;2022-12-16T01:26:52;48.88;;;26.02;;
42332;SDS011;27984;51.476;5.702;2022-12-16T01:29:18;43.95;;;26.80;;
42332;SDS011;27984;51.476;5.702;2022-12-16T01:31:44;48.25;;;26.52;;
42332;SDS011;27984;51.476;5.702;2022-12-16T01:34:10;44.50;;;26.88;;
42332;SDS011;27984;51.476;5.702;2022-12-16T01:36:35;50.25;;;27.40;;
42332;SDS011;27984;51.476;5.702;2022-12-16T01:39:02;47.20;;;27.00;;
42332;SDS011;27984;51.476;5.702;2022-12-16T01:41:28;49.38;;;26.52;;
42332;SDS011;27984;51.476;5.702;2022-12-16T01:46:41;50.42;;;27.92;;
42332;SDS011;27984;51.476;5.702;2022-12-16T01:49:10;51.55;;;27.25;;
42332;SDS011;27984;51.476;5.702;2022-12-16T01:51:38;48.40;;;28.05;;
42332;SDS011;27984;51.476;5.702;2022-12-16T01:54:09;49.60;;;28.65;;
42332;SDS011;27984;51.476;5.702;2022-12-16T01:56:38;50.78;;;28.15;;
42332;SDS011;27984;51.476;5.702;2022-12-16T01:59:04;53.08;;;28.85;;
42332;SDS011;27984;51.476;5.702;2022-12-16T02:01:32;47.80;;;27.80;;
42332;SDS011;27984;51.476;5.702;2022-12-16T02:03:59;49.83;;;28.30;;
42332;SDS011;27984;51.476;5.702;2022-12-16T02:06:27;56.90;;;28.40;;
42332;SDS011;27984;51.476;5.702;2022-12-16T02:08:54;46.47;;;28.30;;
42332;SDS011;27984;51.476;5.702;2022-12-16T02:12:08;44.25;;;27.65;;
42332;SDS011;27984;51.476;5.702;2022-12-16T02:29:35;51.03;;;28.75;;
42332;SDS011;27984;51.476;5.702;2022-12-16T02:34:41;46.92;;;28.27;;
42332;SDS011;27984;51.476;5.702;2022-12-16T02:37:18;52.72;;;29.50;;
42332;SDS011;27984;51.476;5.702;2022-12-16T02:39:51;52.70;;;30.27;;
42332;SDS011;27984;51.476;5.702;2022-12-16T02:42:30;51.03;;;29.98;;
42332;SDS011;27984;51.476;5.702;2022-12-16T02:45:00;55.80;;;31.25;;
42332;SDS011;27984;51.476;5.702;2022-12-16T02:47:28;52.03;;;32.05;;
42332;SDS011;27984;51.476;5.702;2022-12-16T02:49:54;55.55;;;31.90;;
42332;SDS011;27984;51.476;5.702;2022-12-16T02:52:22;54.50;;;31.05;;
42332;SDS011;27984;51.476;5.702;2022-12-16T02:54:49;55.50;;;31.17;;
42332;SDS011;27984;51.476;5.702;2022-12-16T03:00:07;61.30;;;32.40;;
42332;SDS011;27984;51.476;5.702;2022-12-16T03:07:41;57.40;;;33.15;;
42332;SDS011;27984;51.476;5.702;2022-12-16T03:10:07;61.97;;;32.67;;
42332;SDS011;27984;51.476;5.702;2022-12-16T03:12:34;53.83;;;32.40;;
42332;SDS011;27984;51.476;5.702;2022-12-16T03:15:02;61.00;;;33.15;;
42332;SDS011;27984;51.476;5.702;2022-12-16T03:17:29;54.35;;;32.33;;
42332;SDS011;27984;51.476;5.702;2022-12-16T03:19:58;60.70;;;34.00;;
42332;SDS011;27984;51.476;5.702;2022-12-16T03:22:27;59.38;;;32.30;;
42332;SDS011;27984;51.476;5.702;2022-12-16T03:24:53;53.13;;;32.40;;
42332;SDS011;27984;51.476;5.702;2022-12-16T03:34:47;54.85;;;32.65;;
42332;SDS011;27984;51.476;5.702;2022-12-16T03:37:16;58.05;;;32.78;;
42332;SDS011;27984;51.476;5.702;2022-12-16T03:39:45;54.95;;;33.00;;
42332;SDS011;27984;51.476;5.702;2022-12-16T03:42:12;59.65;;;33.78;;
42332;SDS011;27984;51.476;5.702;2022-12-16T03:44:39;61.10;;;34.20;;
42332;SDS011;27984;51.476;5.702;2022-12-16T03:47:05;60.40;;;33.08;;
42332;SDS011;27984;51.476;5.702;2022-12-16T03:49:31;57.28;;;33.50;;
42332;SDS011;27984;51.476;5.702;2022-12-16T03:51:57;55.60;;;32.97;;
42332;SDS011;27984;51.476;5.702;2022-12-16T03:54:23;63.40;;;34.33;;
42332;SDS011;27984;51.476;5.702;2022-12-16T03:56:49;59.10;;;34.38;;
42332;SDS011;27984;51.476;5.702;2022-12-16T03:59:15;58.40;;;33.67;;
42332;SDS011;27984;51.476;5.702;2022-12-16T04:01:41;59.25;;;34.35;;
42332;SDS011;27984;51.476;5.702;2022-12-16T04:04:07;57.47;;;33.95;;
42332;SDS011;27984;51.476;5.702;2022-12-16T04:06:34;57.50;;;32.67;;
42332;SDS011;27984;51.476;5.702;2022-12-16T04:09:00;55.80;;;32.05;;
42332;SDS011;27984;51.476;5.702;2022-12-16T04:11:26;55.03;;;33.78;;
42332;SDS011;27984;51.476;5.702;2022-12-16T04:14:10;59.97;;;33.92;;
42332;SDS011;27984;51.476;5.702;2022-12-16T04:16:55;62.03;;;32.72;;
42332;SDS011;27984;51.476;5.702;2022-12-16T04:19:40;60.25;;;32.53;;
42332;SDS011;27984;51.476;5.702;2022-12-16T04:22:39;58.60;;;34.03;;
42332;SDS011;27984;51.476;5.702;2022-12-16T04:25:29;61.45;;;33.75;;
42332;SDS011;27984;51.476;5.702;2022-12-16T04:27:56;60.40;;;34.38;;
42332;SDS011;27984;51.476;5.702;2022-12-16T04:30:25;60.40;;;33.83;;
42332;SDS011;27984;51.476;5.702;2022-12-16T04:33:05;60.13;;;34.42;;
42332;SDS011;27984;51.476;5.702;2022-12-16T04:35:50;60.13;;;33.20;;
42332;SDS011;27984;51.476;5.702;2022-12-16T04:38:35;61.40;;;33.78;;
42332;SDS011;27984;51.476;5.702;2022-12-16T04:41:20;58.65;;;35.08;;
42332;SDS011;27984;51.476;5.702;2022-12-16T04:44:18;63.08;;;35.33;;
42332;SDS011;27984;51.476;5.702;2022-12-16T04:47:03;61.15;;;33.20;;
42332;SDS011;27984;51.476;5.702;2022-12-16T04:49:47;57.53;;;33.28;;
42332;SDS011;27984;51.476;5.702;2022-12-16T04:52:34;58.15;;;34.15;;
42332;SDS011;27984;51.476;5.702;2022-12-16T04:55:19;57.47;;;33.50;;
42332;SDS011;27984;51.476;5.702;2022-12-16T04:58:04;55.03;;;33.42;;
42332;SDS011;27984;51.476;5.702;2022-12-16T05:00:49;57.70;;;34.38;;
42332;SDS011;27984;51.476;5.702;2022-12-16T05:03:34;59.00;;;34.63;;
42332;SDS011;27984;51.476;5.702;2022-12-16T05:06:19;58.97;;;33.35;;
42332;SDS011;27984;51.476;5.702;2022-12-16T05:09:03;57.40;;;33.35;;
42332;SDS011;27984;51.476;5.702;2022-12-16T05:11:48;54.60;;;32.97;;
42332;SDS011;27984;51.476;5.702;2022-12-16T05:14:33;54.92;;;32.75;;
42332;SDS011;27984;51.476;5.702;2022-12-16T05:17:20;60.03;;;34.53;;
42332;SDS011;27984;51.476;5.702;2022-12-16T05:20:05;57.95;;;33.75;;
42332;SDS011;27984;51.476;5.702;2022-12-16T05:22:50;64.18;;;33.90;;
42332;SDS011;27984;51.476;5.702;2022-12-16T05:25:35;56.80;;;32.78;;
42332;SDS011;27984;51.476;5.702;2022-12-16T05:28:19;56.13;;;32.78;;
42332;SDS011;27984;51.476;5.702;2022-12-16T05:31:04;59.55;;;33.35;;
42332;SDS011;27984;51.476;5.702;2022-12-16T05:33:48;58.53;;;33.35;;
42332;SDS011;27984;51.476;5.702;2022-12-16T05:36:33;59.60;;;33.47;;
42332;SDS011;27984;51.476;5.702;2022-12-16T05:39:17;58.00;;;33.47;;
42332;SDS011;27984;51.476;5.702;2022-12-16T05:42:02;63.60;;;34.03;;
42332;SDS011;27984;51.476;5.702;2022-12-16T05:44:51;58.15;;;33.65;;
42332;SDS011;27984;51.476;5.702;2022-12-16T05:47:36;61.20;;;34.40;;
42332;SDS011;27984;51.476;5.702;2022-12-16T05:50:20;59.35;;;33.55;;
42332;SDS011;27984;51.476;5.702;2022-12-16T05:53:05;61.75;;;34.10;;
42332;SDS011;27984;51.476;5.702;2022-12-16T05:55:49;64.28;;;33.90;;
42332;SDS011;27984;51.476;5.702;2022-12-16T05:58:34;73.13;;;36.00;;
42332;SDS011;27984;51.476;5.702;2022-12-16T06:01:18;66.05;;;35.47;;
42332;SDS011;27984;51.476;5.702;2022-12-16T06:04:03;78.70;;;35.75;;
42332;SDS011;27984;51.476;5.702;2022-12-16T06:06:47;75.00;;;37.10;;
42332;SDS011;27984;51.476;5.702;2022-12-16T06:09:31;81.30;;;37.05;;
42332;SDS011;27984;51.476;5.702;2022-12-16T06:12:16;89.10;;;38.85;;
42332;SDS011;27984;51.476;5.702;2022-12-16T06:15:20;79.90;;;36.58;;
42332;SDS011;27984;51.476;5.702;2022-12-16T06:18:05;79.55;;;37.00;;
42332;SDS011;27984;51.476;5.702;2022-12-16T06:20:49;73.40;;;36.55;;
42332;SDS011;27984;51.476;5.702;2022-12-16T06:23:36;80.43;;;37.40;;
42332;SDS011;27984;51.476;5.702;2022-12-16T06:26:20;87.15;;;38.70;;
42332;SDS011;27984;51.476;5.702;2022-12-16T06:29:06;85.18;;;37.55;;
42332;SDS011;27984;51.476;5.702;2022-12-16T06:31:51;80.95;;;37.97;;
42332;SDS011;27984;51.476;5.702;2022-12-16T06:34:36;77.35;;;36.53;;
42332;SDS011;27984;51.476;5.702;2022-12-16T06:37:20;88.35;;;36.75;;
42332;SDS011;27984;51.476;5.702;2022-12-16T06:40:05;97.85;;;39.40;;
42332;SDS011;27984;51.476;5.702;2022-12-16T06:42:50;99.50;;;38.65;;
42332;SDS011;27984;51.476;5.702;2022-12-16T06:45:34;87.63;;;36.80;;
42332;SDS011;27984;51.476;5.702;2022-12-16T06:48:19;89.00;;;38.03;;
42332;SDS011;27984;51.476;5.702;2022-12-16T06:51:03;91.65;;;38.83;;
42332;SDS011;27984;51.476;5.702;2022-12-16T06:53:48;96.03;;;40.60;;
42332;SDS011;27984;51.476;5.702;2022-12-16T06:56:32;89.95;;;38.22;;
42332;SDS011;27984;51.476;5.702;2022-12-16T06:59:17;96.00;;;38.80;;
42332;SDS011;27984;51.476;5.702;2022-12-16T07:02:01;87.50;;;38.35;;
42332;SDS011;27984;51.476;5.702;2022-12-16T07:04:46;99.50;;;39.47;;
42332;SDS011;27984;51.476;5.702;2022-12-16T07:07:30;108.32;;;39.78;;
42332;SDS011;27984;51.476;5.702;2022-12-16T07:10:15;101.00;;;39.92;;
42332;SDS011;27984;51.476;5.702;2022-12-16T07:13:03;99.03;;;38.92;;
42332;SDS011;27984;51.476;5.702;2022-12-16T07:15:47;103.50;;;40.00;;
42332;SDS011;27984;51.476;5.702;2022-12-16T07:18:32;101.20;;;40.38;;
42332;SDS011;27984;51.476;5.702;2022-12-16T07:21:16;100.35;;;39.88;;
42332;SDS011;27984;51.476;5.702;2022-12-16T07:24:01;97.60;;;40.60;;
42332;SDS011;27984;51.476;5.702;2022-12-16T07:26:46;84.28;;;38.80;;
42332;SDS011;27984;51.476;5.702;2022-12-16T07:29:30;92.22;;;39.65;;
42332;SDS011;27984;51.476;5.702;2022-12-16T07:32:28;97.38;;;40.03;;
42332;SDS011;27984;51.476;5.702;2022-12-16T07:35:13;114.72;;;40.78;;
42332;SDS011;27984;51.476;5.702;2022-12-16T07:37:57;101.57;;;39.92;;
42332;SDS011;27984;51.476;5.702;2022-12-16T07:40:42;95.38;;;38.35;;
42332;SDS011;27984;51.476;5.702;2022-12-16T07:43:26;89.78;;;38.92;;
42332;SDS011;27984;51.476;5.702;2022-12-16T07:46:11;85.22;;;40.88;;
42332;SDS011;27984;51.476;5.702;2022-12-16T07:48:56;83.00;;;39.10;;
42332;SDS011;27984;51.476;5.702;2022-12-16T07:51:40;82.35;;;39.22;;
42332;SDS011;27984;51.476;5.702;2022-12-16T07:54:25;94.10;;;40.65;;
42332;SDS011;27984;51.476;5.702;2022-12-16T07:57:09;80.03;;;38.40;;
42332;SDS011;27984;51.476;5.702;2022-12-16T07:59:54;86.68;;;39.92;;
42332;SDS011;27984;51.476;5.702;2022-12-16T08:02:38;89.78;;;39.88;;
42332;SDS011;27984;51.476;5.702;2022-12-16T08:05:23;84.03;;;38.03;;
42332;SDS011;27984;51.476;5.702;2022-12-16T08:08:07;81.32;;;39.20;;
42332;SDS011;27984;51.476;5.702;2022-12-16T08:10:52;79.32;;;37.85;;
42332;SDS011;27984;51.476;5.702;2022-12-16T08:13:36;76.75;;;38.13;;
42332;SDS011;27984;51.476;5.702;2022-12-16T08:16:21;75.28;;;37.40;;
42332;SDS011;27984;51.476;5.702;2022-12-16T08:19:05;140.57;;;41.45;;
42332;SDS011;27984;51.476;5.702;2022-12-16T08:21:49;90.28;;;38.55;;
42332;SDS011;27984;51.476;5.702;2022-12-16T08:24:34;77.80;;;37.60;;
42332;SDS011;27984;51.476;5.702;2022-12-16T08:27:19;79.13;;;39.15;;
42332;SDS011;27984;51.476;5.702;2022-12-16T08:30:03;77.47;;;36.75;;
42332;SDS011;27984;51.476;5.702;2022-12-16T08:32:49;81.93;;;39.33;;
42332;SDS011;27984;51.476;5.702;2022-12-16T08:35:33;77.75;;;37.15;;
42332;SDS011;27984;51.476;5.702;2022-12-16T08:38:18;76.93;;;36.40;;
42332;SDS011;27984;51.476;5.702;2022-12-16T08:41:02;83.85;;;36.30;;
42332;SDS011;27984;51.476;5.702;2022-12-16T08:43:47;91.35;;;39.08;;
42332;SDS011;27984;51.476;5.702;2022-12-16T08:46:31;80.72;;;37.67;;
42332;SDS011;27984;51.476;5.702;2022-12-16T08:49:16;83.57;;;36.25;;
42332;SDS011;27984;51.476;5.702;2022-12-16T08:52:00;75.90;;;34.90;;
42332;SDS011;27984;51.476;5.702;2022-12-16T08:54:45;100.85;;;35.47;;
42332;SDS011;27984;51.476;5.702;2022-12-16T08:57:37;82.78;;;36.78;;
42332;SDS011;27984;51.476;5.702;2022-12-16T09:00:22;71.07;;;34.35;;
42332;SDS011;27984;51.476;5.702;2022-12-16T09:03:06;74.30;;;35.65;;
42332;SDS011;27984;51.476;5.702;2022-12-16T09:05:51;82.40;;;36.40;;
42332;SDS011;27984;51.476;5.702;2022-12-16T09:08:35;86.43;;;34.78;;
42332;SDS011;27984;51.476;5.702;2022-12-16T09:11:20;65.70;;;32.92;;
42332;SDS011;27984;51.476;5.702;2022-12-16T09:14:04;69.20;;;33.65;;
42332;SDS011;27984;51.476;5.702;2022-12-16T09:16:49;87.63;;;33.40;;
42332;SDS011;27984;51.476;5.702;2022-12-16T09:19:33;88.40;;;34.38;;
42332;SDS011;27984;51.476;5.702;2022-12-16T09:22:18;70.30;;;33.40;;
42332;SDS011;27984;51.476;5.702;2022-12-16T09:25:02;73.50;;;34.92;;
42332;SDS011;27984;51.476;5.702;2022-12-16T09:27:48;68.07;;;32.33;;
42332;SDS011;27984;51.476;5.702;2022-12-16T09:30:43;75.03;;;33.15;;
42332;SDS011;27984;51.476;5.702;2022-12-16T09:33:28;70.95;;;33.40;;
42332;SDS011;27984;51.476;5.702;2022-12-16T09:36:15;68.47;;;33.80;;
42332;SDS011;27984;51.476;5.702;2022-12-16T09:38:59;72.75;;;34.67;;
42332;SDS011;27984;51.476;5.702;2022-12-16T09:41:45;70.35;;;33.47;;
42332;SDS011;27984;51.476;5.702;2022-12-16T09:44:54;67.22;;;33.15;;
42332;SDS011;27984;51.476;5.702;2022-12-16T09:47:45;67.78;;;33.20;;
42332;SDS011;27984;51.476;5.702;2022-12-16T09:50:31;65.85;;;32.13;;
42332;SDS011;27984;51.476;5.702;2022-12-16T09:56:04;58.67;;;31.35;;
42332;SDS011;27984;51.476;5.702;2022-12-16T09:58:53;67.07;;;32.25;;
42332;SDS011;27984;51.476;5.702;2022-12-16T10:01:39;66.47;;;32.35;;
42332;SDS011;27984;51.476;5.702;2022-12-16T10:04:24;61.40;;;31.17;;
42332;SDS011;27984;51.476;5.702;2022-12-16T10:07:16;59.20;;;31.50;;
42332;SDS011;27984;51.476;5.702;2022-12-16T10:13:16;51.58;;;29.33;;
42332;SDS011;27984;51.476;5.702;2022-12-16T10:21:35;45.05;;;27.50;;
42332;SDS011;27984;51.476;5.702;2022-12-16T10:27:12;43.17;;;25.73;;
42332;SDS011;27984;51.476;5.702;2022-12-16T10:29:58;46.60;;;27.58;;
42332;SDS011;27984;51.476;5.702;2022-12-16T10:32:45;48.67;;;28.27;;
42332;SDS011;27984;51.476;5.702;2022-12-16T10:35:33;50.42;;;28.50;;
42332;SDS011;27984;51.476;5.702;2022-12-16T10:38:40;50.55;;;28.35;;
42332;SDS011;27984;51.476;5.702;2022-12-16T10:41:24;48.40;;;28.23;;
42332;SDS011;27984;51.476;5.702;2022-12-16T10:46:54;53.60;;;29.40;;
42332;SDS011;27984;51.476;5.702;2022-12-16T10:49:39;53.45;;;30.30;;
42332;SDS011;27984;51.476;5.702;2022-12-16T10:52:23;59.38;;;31.90;;
42332;SDS011;27984;51.476;5.702;2022-12-16T10:55:14;52.58;;;31.60;;
42332;SDS011;27984;51.476;5.702;2022-12-16T10:58:22;53.80;;;30.48;;
42332;SDS011;27984;51.476;5.702;2022-12-16T11:01:19;55.75;;;32.20;;
42332;SDS011;27984;51.476;5.702;2022-12-16T11:04:25;61.08;;;32.65;;
42332;SDS011;27984;51.476;5.702;2022-12-16T11:07:21;57.33;;;32.75;;
42332;SDS011;27984;51.476;5.702;2022-12-16T11:10:21;60.33;;;33.38;;
42332;SDS011;27984;51.476;5.702;2022-12-16T11:13:40;57.70;;;31.65;;
42332;SDS011;27984;51.476;5.702;2022-12-16T11:16:27;55.78;;;30.77;;
42332;SDS011;27984;51.476;5.702;2022-12-16T11:19:22;55.00;;;30.25;;
42332;SDS011;27984;51.476;5.702;2022-12-16T11:25:02;43.97;;;27.15;;
42332;SDS011;27984;51.476;5.702;2022-12-16T11:28:00;44.38;;;27.95;;
42332;SDS011;27984;51.476;5.702;2022-12-16T11:30:52;50.17;;;28.35;;
42332;SDS011;27984;51.476;5.702;2022-12-16T11:33:51;45.28;;;28.05;;
42332;SDS011;27984;51.476;5.702;2022-12-16T11:36:36;48.17;;;28.27;;
42332;SDS011;27984;51.476;5.702;2022-12-16T11:39:22;46.88;;;27.98;;
42332;SDS011;27984;51.476;5.702;2022-12-16T11:44:56;47.05;;;26.95;;
42332;SDS011;27984;51.476;5.702;2022-12-16T11:50:27;49.05;;;28.27;;
42332;SDS011;27984;51.476;5.702;2022-12-16T11:56:03;49.25;;;27.45;;
42332;SDS011;27984;51.476;5.702;2022-12-16T11:58:49;46.63;;;28.27;;
42332;SDS011;27984;51.476;5.702;2022-12-16T12:01:43;45.70;;;27.20;;
42332;SDS011;27984;51.476;5.702;2022-12-16T12:04:30;40.60;;;25.90;;
42332;SDS011;27984;51.476;5.702;2022-12-16T12:07:23;41.08;;;25.88;;
42332;SDS011;27984;51.476;5.702;2022-12-16T12:13:04;36.10;;;24.15;;
42332;SDS011;27984;51.476;5.702;2022-12-16T12:15:54;39.88;;;25.02;;
42332;SDS011;27984;51.476;5.702;2022-12-16T12:21:26;38.03;;;24.38;;
42332;SDS011;27984;51.476;5.702;2022-12-16T12:27:18;39.38;;;25.20;;
42332;SDS011;27984;51.476;5.702;2022-12-16T12:30:09;36.67;;;24.60;;
42332;SDS011;27984;51.476;5.702;2022-12-16T12:38:39;29.77;;;19.63;;
42332;SDS011;27984;51.476;5.702;2022-12-16T12:41:28;32.42;;;21.02;;
42332;SDS011;27984;51.476;5.702;2022-12-16T12:44:30;30.83;;;19.48;;
42332;SDS011;27984;51.476;5.702;2022-12-16T12:47:19;34.75;;;20.00;;
42332;SDS011;27984;51.476;5.702;2022-12-16T12:50:08;32.58;;;19.63;;
42332;SDS011;27984;51.476;5.702;2022-12-16T12:58:46;29.77;;;18.85;;
42332;SDS011;27984;51.476;5.702;2022-12-16T13:04:17;30.20;;;18.70;;
42332;SDS011;27984;51.476;5.702;2022-12-16T13:07:03;32.97;;;19.08;;
42332;SDS011;27984;51.476;5.702;2022-12-16T13:13:19;26.45;;;16.83;;
42332;SDS011;27984;51.476;5.702;2022-12-16T13:15:56;29.70;;;18.13;;
42332;SDS011;27984;51.476;5.702;2022-12-16T13:18:41;29.30;;;17.60;;
42332;SDS011;27984;51.476;5.702;2022-12-16T13:24:33;32.78;;;19.13;;
42332;SDS011;27984;51.476;5.702;2022-12-16T13:27:19;28.52;;;18.55;;
42332;SDS011;27984;51.476;5.702;2022-12-16T13:32:59;28.40;;;18.55;;
42332;SDS011;27984;51.476;5.702;2022-12-16T13:35:54;30.13;;;18.55;;
42332;SDS011;27984;51.476;5.702;2022-12-16T13:38:53;29.33;;;19.23;;
42332;SDS011;27984;51.476;5.702;2022-12-16T13:50:38;31.35;;;19.35;;
42332;SDS011;27984;51.476;5.702;2022-12-16T13:53:24;29.35;;;18.60;;
42332;SDS011;27984;51.476;5.702;2022-12-16T13:56:09;30.58;;;19.52;;
42332;SDS011;27984;51.476;5.702;2022-12-16T13:58:58;28.17;;;17.95;;
42332;SDS011;27984;51.476;5.702;2022-12-16T14:01:54;35.17;;;21.15;;
42332;SDS011;27984;51.476;5.702;2022-12-16T14:04:44;34.08;;;20.58;;
42332;SDS011;27984;51.476;5.702;2022-12-16T14:07:30;34.67;;;21.38;;
42332;SDS011;27984;51.476;5.702;2022-12-16T14:10:34;35.47;;;21.85;;
42332;SDS011;27984;51.476;5.702;2022-12-16T14:21:48;34.22;;;21.90;;
42332;SDS011;27984;51.476;5.702;2022-12-16T14:24:34;38.80;;;22.10;;
42332;SDS011;27984;51.476;5.702;2022-12-16T14:27:21;38.38;;;22.52;;
42332;SDS011;27984;51.476;5.702;2022-12-16T14:30:16;37.00;;;23.45;;
42332;SDS011;27984;51.476;5.702;2022-12-16T14:33:20;35.97;;;22.70;;
42332;SDS011;27984;51.476;5.702;2022-12-16T14:36:18;34.78;;;21.80;;
42332;SDS011;27984;51.476;5.702;2022-12-16T14:39:03;39.53;;;23.73;;
42332;SDS011;27984;51.476;5.702;2022-12-16T14:41:50;37.92;;;23.25;;
42332;SDS011;27984;51.476;5.702;2022-12-16T14:44:35;38.45;;;22.80;;
42332;SDS011;27984;51.476;5.702;2022-12-16T14:47:21;33.97;;;21.77;;
42332;SDS011;27984;51.476;5.702;2022-12-16T14:50:27;39.63;;;22.60;;
42332;SDS011;27984;51.476;5.702;2022-12-16T14:53:23;36.38;;;23.05;;
42332;SDS011;27984;51.476;5.702;2022-12-16T14:56:08;38.33;;;22.38;;
42332;SDS011;27984;51.476;5.702;2022-12-16T14:59:06;44.60;;;23.63;;
42332;SDS011;27984;51.476;5.702;2022-12-16T15:01:52;36.85;;;23.67;;
42332;SDS011;27984;51.476;5.702;2022-12-16T15:04:38;38.33;;;23.48;;
42332;SDS011;27984;51.476;5.702;2022-12-16T15:07:25;37.70;;;23.13;;
42332;SDS011;27984;51.476;5.702;2022-12-16T15:10:24;37.53;;;24.02;;
42332;SDS011;27984;51.476;5.702;2022-12-16T15:13:14;36.30;;;23.13;;
42332;SDS011;27984;51.476;5.702;2022-12-16T15:16:00;39.30;;;22.90;;
42332;SDS011;27984;51.476;5.702;2022-12-16T15:18:45;40.42;;;23.42;;
42332;SDS011;27984;51.476;5.702;2022-12-16T15:24:19;36.83;;;22.20;;
42332;SDS011;27984;51.476;5.702;2022-12-16T15:30:48;38.42;;;24.08;;
42332;SDS011;27984;51.476;5.702;2022-12-16T15:33:09;42.17;;;24.90;;
42332;SDS011;27984;51.476;5.702;2022-12-16T15:36:00;39.17;;;25.10;;
42332;SDS011;27984;51.476;5.702;2022-12-16T15:38:47;41.10;;;25.13;;
42332;SDS011;27984;51.476;5.702;2022-12-16T15:41:33;37.35;;;24.75;;
42332;SDS011;27984;51.476;5.702;2022-12-16T15:44:27;43.97;;;25.83;;
42332;SDS011;27984;51.476;5.702;2022-12-16T15:47:31;40.20;;;23.88;;
42332;SDS011;27984;51.476;5.702;2022-12-16T15:50:17;38.22;;;23.00;;
42332;SDS011;27984;51.476;5.702;2022-12-16T15:53:13;36.08;;;23.48;;
42332;SDS011;27984;51.476;5.702;2022-12-16T15:56:01;41.10;;;24.20;;
42332;SDS011;27984;51.476;5.702;2022-12-16T15:58:49;41.13;;;23.75;;
42332;SDS011;27984;51.476;5.702;2022-12-16T16:01:38;39.03;;;24.88;;
42332;SDS011;27984;51.476;5.702;2022-12-16T16:04:29;41.95;;;24.50;;
42332;SDS011;27984;51.476;5.702;2022-12-16T16:07:18;38.83;;;24.45;;
42332;SDS011;27984;51.476;5.702;2022-12-16T16:12:54;43.03;;;25.35;;
42332;SDS011;27984;51.476;5.702;2022-12-16T16:15:38;38.10;;;24.00;;
42332;SDS011;27984;51.476;5.702;2022-12-16T16:18:23;42.90;;;25.42;;
42332;SDS011;27984;51.476;5.702;2022-12-16T16:21:07;42.05;;;26.02;;
42332;SDS011;27984;51.476;5.702;2022-12-16T16:23:52;41.28;;;25.08;;
42332;SDS011;27984;51.476;5.702;2022-12-16T16:26:36;45.58;;;25.65;;
42332;SDS011;27984;51.476;5.702;2022-12-16T16:29:21;45.35;;;26.98;;
42332;SDS011;27984;51.476;5.702;2022-12-16T16:32:06;51.58;;;28.88;;
42332;SDS011;27984;51.476;5.702;2022-12-16T16:34:51;39.35;;;25.48;;
42332;SDS011;27984;51.476;5.702;2022-12-16T16:37:36;43.63;;;26.05;;
42332;SDS011;27984;51.476;5.702;2022-12-16T16:40:35;42.97;;;26.20;;
42332;SDS011;27984;51.476;5.702;2022-12-16T16:43:20;47.50;;;26.02;;
42332;SDS011;27984;51.476;5.702;2022-12-16T16:49:09;47.58;;;28.02;;
42332;SDS011;27984;51.476;5.702;2022-12-16T16:51:54;49.63;;;28.58;;
42332;SDS011;27984;51.476;5.702;2022-12-16T16:54:39;50.25;;;30.83;;
42332;SDS011;27984;51.476;5.702;2022-12-16T16:57:24;51.80;;;32.28;;
42332;SDS011;27984;51.476;5.702;2022-12-16T17:02:56;53.33;;;30.67;;
42332;SDS011;27984;51.476;5.702;2022-12-16T17:05:41;58.65;;;32.25;;
42332;SDS011;27984;51.476;5.702;2022-12-16T17:08:25;54.83;;;32.38;;
42332;SDS011;27984;51.476;5.702;2022-12-16T17:11:15;55.80;;;33.05;;
42332;SDS011;27984;51.476;5.702;2022-12-16T17:14:00;53.05;;;32.75;;
42332;SDS011;27984;51.476;5.702;2022-12-16T17:16:45;59.05;;;31.95;;
42332;SDS011;27984;51.476;5.702;2022-12-16T17:19:29;56.80;;;32.78;;
42332;SDS011;27984;51.476;5.702;2022-12-16T17:22:14;57.78;;;32.78;;
42332;SDS011;27984;51.476;5.702;2022-12-16T17:24:59;54.97;;;32.63;;
42332;SDS011;27984;51.476;5.702;2022-12-16T17:27:43;55.83;;;32.85;;
42332;SDS011;27984;51.476;5.702;2022-12-16T17:30:29;58.60;;;33.17;;
42332;SDS011;27984;51.476;5.702;2022-12-16T17:33:14;58.45;;;32.75;;
42332;SDS011;27984;51.476;5.702;2022-12-16T17:35:59;54.17;;;32.25;;
42332;SDS011;27984;51.476;5.702;2022-12-16T17:38:44;61.50;;;33.65;;
42332;SDS011;27984;51.476;5.702;2022-12-16T17:41:29;55.38;;;32.20;;
42332;SDS011;27984;51.476;5.702;2022-12-16T17:44:14;60.70;;;33.38;;
42332;SDS011;27984;51.476;5.702;2022-12-16T17:46:59;57.40;;;32.70;;
42332;SDS011;27984;51.476;5.702;2022-12-16T17:49:46;57.50;;;32.55;;
42332;SDS011;27984;51.476;5.702;2022-12-16T17:52:31;59.58;;;33.40;;
42332;SDS011;27984;51.476;5.702;2022-12-16T17:55:15;56.20;;;33.92;;
42332;SDS011;27984;51.476;5.702;2022-12-16T17:58:00;57.08;;;33.55;;